createdAt,value
2023-04-23T00:01:42.477Z,99.90
2023-04-23T00:06:51.720Z,99.90
2023-04-23T00:12:00.119Z,99.90
2023-04-23T00:17:05.504Z,99.90
2023-04-23T00:22:10.660Z,99.90
2023-04-23T00:27:15.836Z,99.90
2023-04-23T00:32:22.736Z,99.90
2023-04-23T00:37:28.623Z,99.90
2023-04-23T00:48:03.264Z,99.90
2023-04-23T00:53:13.890Z,99.90
2023-04-23T00:58:25.264Z,99.90
2023-04-23T01:03:33.653Z,99.90
2023-04-23T01:08:44.859Z,99.90
2023-04-23T01:13:50.168Z,99.90
2023-04-23T01:18:58.657Z,99.90
2023-04-23T01:24:06.542Z,99.90
2023-04-23T01:29:12.662Z,99.90
2023-04-23T01:34:18.402Z,99.90
2023-04-23T01:39:24.319Z,99.90
2023-04-23T01:44:29.507Z,99.90
2023-04-23T01:49:34.812Z,99.90
2023-04-23T01:54:40.307Z,99.90
2023-04-23T01:59:49.712Z,99.90
2023-04-23T02:05:11.324Z,99.90
2023-04-23T02:10:17.177Z,99.90
2023-04-23T02:15:23.323Z,99.90
2023-04-23T02:20:41.058Z,99.90
2023-04-23T02:25:50.450Z,99.90
2023-04-23T02:30:55.609Z,99.90
2023-04-23T02:36:05.859Z,99.90
2023-04-23T02:41:14.621Z,99.90
2023-04-23T02:46:23.431Z,99.90
2023-04-23T02:51:28.720Z,99.90
2023-04-23T02:56:34.816Z,99.90
2023-04-23T03:01:44.538Z,99.90
2023-04-23T03:06:51.305Z,99.90
2023-04-23T03:11:57.856Z,99.90
2023-04-23T03:17:03.226Z,99.90
2023-04-23T03:22:10.676Z,99.90
2023-04-23T03:27:16.014Z,99.90
2023-04-23T03:32:22.268Z,99.90
2023-04-23T03:37:29.648Z,99.90
2023-04-23T03:42:37.392Z,99.90
2023-04-23T03:47:42.744Z,99.90
2023-04-23T03:52:50.204Z,99.90
2023-04-23T03:57:55.916Z,99.90
2023-04-23T04:03:02.492Z,99.90
2023-04-23T04:08:08.735Z,99.90
2023-04-23T04:13:18.275Z,99.90
2023-04-23T04:18:26.949Z,99.90
2023-04-23T04:23:46.572Z,99.90
2023-04-23T04:29:23.480Z,99.90
2023-04-23T04:34:28.643Z,99.90
2023-04-23T04:39:42.549Z,99.90
2023-04-23T04:44:48.967Z,99.90
2023-04-23T04:49:57.548Z,99.90
2023-04-23T05:00:35.554Z,99.90
2023-04-23T05:05:40.661Z,99.90
2023-04-23T05:10:46.665Z,99.90
2023-04-23T05:15:58.236Z,99.90
2023-04-23T05:21:22.217Z,99.90
2023-04-23T05:26:50.968Z,99.90
2023-04-23T05:31:56.520Z,99.90
2023-04-23T05:37:09.646Z,99.90
2023-04-23T05:42:30.615Z,99.90
2023-04-23T05:47:52.694Z,99.90
2023-04-23T05:53:00.127Z,99.90
2023-04-23T05:58:15.149Z,99.90
2023-04-23T06:03:20.791Z,99.90
2023-04-23T06:08:34.746Z,99.90
2023-04-23T06:13:59.380Z,99.90
2023-04-23T06:19:06.687Z,99.90
2023-04-23T06:24:17.406Z,99.90
2023-04-23T06:29:30.259Z,99.90
2023-04-23T06:35:00.396Z,99.00
2023-04-23T06:40:04.220Z,97.30
2023-04-23T06:45:14.457Z,96.80
2023-04-23T06:50:40.459Z,94.20
2023-04-23T06:55:53.552Z,92.20
2023-04-23T07:01:00.675Z,91.20
2023-04-23T07:06:25.083Z,88.00
2023-04-23T07:11:41.245Z,84.20
2023-04-23T07:17:06.080Z,81.30
2023-04-23T07:22:15.565Z,79.50
2023-04-23T07:27:29.915Z,78.60
2023-04-23T07:32:42.520Z,78.20
2023-04-23T07:37:51.661Z,73.70
2023-04-23T07:42:57.949Z,72.40
2023-04-23T07:48:04.072Z,72.80
2023-04-23T07:53:24.157Z,71.00
2023-04-23T07:59:02.227Z,66.60
2023-04-23T08:04:08.789Z,68.50
2023-04-23T08:09:15.314Z,62.40
2023-04-23T08:14:20.852Z,62.50
2023-04-23T08:19:27.981Z,59.50
2023-04-23T08:24:33.245Z,58.80
2023-04-23T08:29:38.303Z,58.50
2023-04-23T08:34:43.566Z,56.00
2023-04-23T08:39:48.627Z,57.10
2023-04-23T08:45:01.749Z,53.80
2023-04-23T08:50:08.328Z,55.60
2023-04-23T08:55:16.088Z,52.20
2023-04-23T09:00:26.199Z,52.50
2023-04-23T09:05:32.247Z,51.80
2023-04-23T09:10:54.701Z,51.60
2023-04-23T09:16:03.236Z,52.00
2023-04-23T09:21:11.146Z,49.40
2023-04-23T09:26:25.189Z,49.80
2023-04-23T09:31:34.109Z,50.10
2023-04-23T09:36:41.468Z,45.60
2023-04-23T09:41:47.015Z,46.90
2023-04-23T09:46:55.209Z,45.30
2023-04-23T09:52:04.495Z,45.50
2023-04-23T09:57:18.591Z,42.10
2023-04-23T10:02:30.001Z,44.40
2023-04-23T10:07:53.668Z,43.70
2023-04-23T10:13:09.882Z,41.30
2023-04-23T10:18:48.085Z,44.50
2023-04-23T10:24:03.834Z,38.50
2023-04-23T10:29:20.196Z,42.10
2023-04-23T10:34:32.003Z,39.60
2023-04-23T10:39:38.708Z,40.10
2023-04-23T10:44:58.143Z,43.10
2023-04-23T10:49:53.097Z,41.20
2023-04-23T10:55:00.350Z,40.70
2023-04-23T11:00:06.678Z,40.50
2023-04-23T11:05:12.287Z,41.60
2023-04-23T11:10:18.127Z,41.00
2023-04-23T11:15:25.927Z,43.30
2023-04-23T11:20:52.951Z,44.90
2023-04-23T11:26:11.319Z,41.70
2023-04-23T11:31:16.798Z,40.90
2023-04-23T11:36:23.316Z,36.70
2023-04-23T11:41:31.356Z,38.70
2023-04-23T11:46:36.877Z,40.70
2023-04-23T11:51:46.918Z,40.20
2023-04-23T11:57:09.026Z,40.20
2023-04-23T12:02:19.937Z,42.40
2023-04-23T12:07:52.477Z,42.60
2023-04-23T12:13:01.152Z,39.80
2023-04-23T12:23:53.945Z,39.60
2023-04-23T12:29:01.856Z,40.50
2023-04-23T12:34:17.373Z,40.80
2023-04-23T12:39:31.827Z,38.80
2023-04-23T12:44:41.162Z,39.70
2023-04-23T12:49:51.074Z,41.60
2023-04-23T12:55:05.954Z,42.20
2023-04-23T13:00:13.649Z,39.20
2023-04-23T13:05:20.877Z,40.20
2023-04-23T13:10:26.375Z,39.90
2023-04-23T13:15:38.277Z,42.80
2023-04-23T13:20:49.180Z,39.80
2023-04-23T13:25:57.802Z,41.50
2023-04-23T13:31:09.166Z,42.50
2023-04-23T13:36:28.552Z,40.60
2023-04-23T13:41:43.824Z,44.60
2023-04-23T13:46:53.749Z,42.40
2023-04-23T13:52:11.304Z,43.60
2023-04-23T13:57:17.828Z,44.40
2023-04-23T14:02:32.319Z,46.20
2023-04-23T14:07:43.908Z,45.40
2023-04-23T14:13:12.395Z,45.40
2023-04-23T14:18:29.553Z,46.20
2023-04-23T14:23:50.794Z,46.30
2023-04-23T14:28:59.237Z,45.40
2023-04-23T14:34:16.951Z,47.60
2023-04-23T14:39:27.589Z,48.80
2023-04-23T14:44:35.985Z,48.60
2023-04-23T14:49:45.497Z,48.20
2023-04-23T14:54:54.017Z,49.00
2023-04-23T15:00:03.825Z,50.40
2023-04-23T15:05:13.239Z,51.10
2023-04-23T15:10:35.868Z,53.30
2023-04-23T15:15:54.773Z,55.80
2023-04-23T15:21:05.364Z,57.50
2023-04-23T15:26:18.139Z,58.10
2023-04-23T15:36:56.510Z,59.50
2023-04-23T15:42:23.862Z,61.30
2023-04-23T15:47:38.918Z,61.80
2023-04-23T15:52:45.060Z,63.00
2023-04-23T15:57:58.058Z,63.70
2023-04-23T16:03:15.402Z,65.00
2023-04-23T16:08:26.567Z,66.90
2023-04-23T16:13:33.827Z,68.20
2023-04-23T16:18:41.944Z,69.00
2023-04-23T16:23:50.001Z,70.70
2023-04-23T16:29:05.389Z,71.00
2023-04-23T16:34:03.883Z,71.70
2023-04-23T16:39:12.582Z,73.20
2023-04-23T16:44:32.804Z,75.50
2023-04-23T16:55:18.048Z,77.80
2023-04-23T17:00:58.306Z,79.60
2023-04-23T17:06:32.320Z,81.20
2023-04-23T17:11:37.507Z,83.00
2023-04-23T17:17:23.233Z,86.50
2023-04-23T17:39:35.080Z,97.90
2023-04-23T17:50:30.192Z,99.90
2023-04-23T18:01:40.679Z,99.90
2023-04-23T18:07:05.089Z,99.90
2023-04-23T18:12:17.631Z,99.90
2023-04-23T18:17:56.908Z,99.90
2023-04-23T18:23:08.088Z,99.90
2023-04-23T18:28:48.441Z,99.90
2023-04-23T18:40:09.396Z,99.90
2023-04-23T18:45:40.394Z,99.90
2023-04-23T18:50:55.938Z,99.90
2023-04-23T18:56:16.867Z,99.90
2023-04-23T19:13:21.808Z,99.90
2023-04-23T19:19:13.366Z,99.90
2023-04-23T19:48:00.306Z,99.90
2023-04-23T19:59:32.520Z,99.90
2023-04-23T20:04:50.261Z,99.90
2023-04-23T20:21:30.732Z,99.90
2023-04-23T20:44:24.839Z,99.90
2023-04-23T20:49:42.173Z,99.90
2023-04-23T21:07:00.474Z,99.90
2023-04-23T21:41:33.417Z,99.90
2023-04-23T21:47:09.311Z,99.90
2023-04-23T21:58:49.379Z,99.90
2023-04-23T22:15:47.875Z,99.90
2023-04-23T22:21:18.414Z,99.90
2023-04-23T22:26:46.847Z,99.90
2023-04-23T23:06:52.337Z,99.90
2023-04-23T23:52:56.085Z,99.90
